createdAt,value
2023-05-15T00:01:45.756Z,3.03
2023-05-15T00:04:17.669Z,3.90
2023-05-15T00:06:49.216Z,2.80
2023-05-15T00:09:21.105Z,3.20
2023-05-15T00:11:52.761Z,2.85
2023-05-15T00:14:24.233Z,3.53
2023-05-15T00:16:56.069Z,3.38
2023-05-15T00:19:27.582Z,3.50
2023-05-15T00:21:59.051Z,2.50
2023-05-15T00:24:30.514Z,2.58
2023-05-15T00:27:02.259Z,3.53
2023-05-15T00:29:33.724Z,2.90
2023-05-15T00:32:05.506Z,3.17
2023-05-15T00:34:36.988Z,3.30
2023-05-15T00:37:08.891Z,2.95
2023-05-15T00:39:40.370Z,3.08
2023-05-15T00:42:11.821Z,2.70
2023-05-15T00:44:43.286Z,3.35
2023-05-15T00:47:14.830Z,4.03
2023-05-15T00:49:46.653Z,3.35
2023-05-15T00:52:18.113Z,3.47
2023-05-15T00:54:49.896Z,2.80
2023-05-15T00:57:21.356Z,3.63
2023-05-15T00:59:53.387Z,2.80
2023-05-15T01:02:24.968Z,3.00
2023-05-15T01:04:56.873Z,2.40
2023-05-15T01:07:28.812Z,3.72
2023-05-15T01:10:00.626Z,3.15
2023-05-15T01:12:32.356Z,3.03
2023-05-15T01:15:03.836Z,3.10
2023-05-15T01:17:35.323Z,3.97
2023-05-15T01:20:06.878Z,3.55
2023-05-15T01:22:38.446Z,3.75
2023-05-15T01:25:09.892Z,2.92
2023-05-15T01:27:41.339Z,3.13
2023-05-15T01:30:12.861Z,3.45
2023-05-15T01:32:44.653Z,3.38
2023-05-15T01:35:16.130Z,2.60
2023-05-15T01:37:47.988Z,2.67
2023-05-15T01:40:19.821Z,2.88
2023-05-15T01:42:51.303Z,2.45
2023-05-15T01:45:23.076Z,3.28
2023-05-15T01:47:54.672Z,3.17
2023-05-15T01:50:26.536Z,2.67
2023-05-15T01:52:57.989Z,2.63
2023-05-15T01:55:29.763Z,2.97
2023-05-15T01:58:01.223Z,3.08
2023-05-15T02:00:33.174Z,3.33
2023-05-15T02:03:04.778Z,3.47
2023-05-15T02:05:36.435Z,2.88
2023-05-15T02:08:08.199Z,2.65
2023-05-15T02:10:39.681Z,3.05
2023-05-15T02:13:11.501Z,3.10
2023-05-15T02:15:42.956Z,3.28
2023-05-15T02:18:14.750Z,2.63
2023-05-15T02:20:46.176Z,3.40
2023-05-15T02:23:17.830Z,3.58
2023-05-15T02:25:49.308Z,3.10
2023-05-15T02:28:20.963Z,3.58
2023-05-15T02:30:52.432Z,3.50
2023-05-15T02:33:24.313Z,3.53
2023-05-15T02:35:55.764Z,3.30
2023-05-15T02:38:27.540Z,3.25
2023-05-15T02:40:59.017Z,3.78
2023-05-15T02:43:30.688Z,3.03
2023-05-15T02:46:02.359Z,3.85
2023-05-15T02:48:33.876Z,3.72
2023-05-15T02:51:05.677Z,4.10
2023-05-15T02:53:37.126Z,3.40
2023-05-15T02:56:08.882Z,4.10
2023-05-15T02:58:40.329Z,3.75
2023-05-15T03:01:12.150Z,3.97
2023-05-15T03:03:43.661Z,3.13
2023-05-15T03:06:15.292Z,3.45
2023-05-15T03:08:46.925Z,3.25
2023-05-15T03:11:18.591Z,3.65
2023-05-15T03:13:50.404Z,3.75
2023-05-15T03:16:21.901Z,3.50
2023-05-15T03:18:53.689Z,3.60
2023-05-15T03:21:25.171Z,3.33
2023-05-15T03:23:56.969Z,3.63
2023-05-15T03:26:28.425Z,3.33
2023-05-15T03:29:00.213Z,4.05
2023-05-15T03:31:31.684Z,3.05
2023-05-15T03:34:03.465Z,3.20
2023-05-15T03:36:34.939Z,3.20
2023-05-15T03:39:06.715Z,3.17
2023-05-15T03:41:38.203Z,4.28
2023-05-15T03:44:09.656Z,3.22
2023-05-15T03:46:41.517Z,3.78
2023-05-15T03:49:13.003Z,3.63
2023-05-15T03:51:44.753Z,3.60
2023-05-15T03:54:16.259Z,3.20
2023-05-15T03:56:48.031Z,3.42
2023-05-15T03:59:19.540Z,3.38
2023-05-15T04:02:03.665Z,3.83
2023-05-15T04:04:36.628Z,3.97
2023-05-15T04:07:08.390Z,3.65
2023-05-15T04:09:39.843Z,3.78
2023-05-15T04:12:11.567Z,3.50
2023-05-15T04:14:43.014Z,3.45
2023-05-15T04:17:14.918Z,3.33
2023-05-15T04:19:46.351Z,3.63
2023-05-15T04:22:18.184Z,3.60
2023-05-15T04:24:49.655Z,3.80
2023-05-15T04:27:21.439Z,3.35
2023-05-15T04:29:52.878Z,3.22
2023-05-15T04:32:24.616Z,3.92
2023-05-15T04:34:56.100Z,4.05
2023-05-15T04:37:28.060Z,3.85
2023-05-15T04:39:59.500Z,4.35
2023-05-15T04:42:31.404Z,3.67
2023-05-15T04:45:02.870Z,4.32
2023-05-15T04:47:34.502Z,3.72
2023-05-15T04:50:05.998Z,3.90
2023-05-15T04:52:37.727Z,3.47
2023-05-15T04:55:09.181Z,3.33
2023-05-15T04:57:40.926Z,3.88
2023-05-15T05:00:13.453Z,3.92
2023-05-15T05:02:45.209Z,4.10
2023-05-15T05:05:16.716Z,3.15
2023-05-15T05:07:48.547Z,3.65
2023-05-15T05:10:20.026Z,4.28
2023-05-15T05:12:51.813Z,4.00
2023-05-15T05:15:23.355Z,3.67
2023-05-15T05:17:55.592Z,4.25
2023-05-15T05:20:27.110Z,3.97
2023-05-15T05:22:58.916Z,4.43
2023-05-15T05:25:30.393Z,3.45
2023-05-15T05:28:02.065Z,4.15
2023-05-15T05:30:33.545Z,3.83
2023-05-15T05:33:05.556Z,3.97
2023-05-15T05:35:37.091Z,3.67
2023-05-15T05:38:08.950Z,3.85
2023-05-15T05:40:40.410Z,3.92
2023-05-15T05:43:12.188Z,3.08
2023-05-15T05:45:43.633Z,3.83
2023-05-15T05:48:15.390Z,3.55
2023-05-15T05:50:46.835Z,3.10
2023-05-15T05:53:18.629Z,3.10
2023-05-15T05:55:50.105Z,4.07
2023-05-15T05:58:25.855Z,3.63
2023-05-15T06:00:57.817Z,3.47
2023-05-15T06:03:29.592Z,3.38
2023-05-15T06:06:01.122Z,3.42
2023-05-15T06:08:32.837Z,3.58
2023-05-15T06:11:04.281Z,3.72
2023-05-15T06:13:35.756Z,3.85
2023-05-15T06:16:07.206Z,3.80
2023-05-15T06:18:39.224Z,3.65
2023-05-15T06:21:10.712Z,3.30
2023-05-15T06:23:42.603Z,3.35
2023-05-15T06:26:14.087Z,3.90
2023-05-15T06:28:45.857Z,3.97
2023-05-15T06:31:17.411Z,4.43
2023-05-15T06:33:49.415Z,3.78
2023-05-15T06:36:20.866Z,3.53
2023-05-15T06:38:52.648Z,3.17
2023-05-15T06:41:24.129Z,3.75
2023-05-15T06:43:55.925Z,3.47
2023-05-15T06:46:27.883Z,4.45
2023-05-15T06:48:59.739Z,3.80
2023-05-15T06:51:31.206Z,3.53
2023-05-15T06:54:03.006Z,3.92
2023-05-15T06:56:34.519Z,3.17
2023-05-15T06:59:06.152Z,4.20
2023-05-15T07:01:37.681Z,3.78
2023-05-15T07:04:09.556Z,4.35
2023-05-15T07:06:41.008Z,4.13
2023-05-15T07:09:12.743Z,3.75
2023-05-15T07:11:44.218Z,3.60
2023-05-15T07:14:19.187Z,3.85
2023-05-15T07:16:51.048Z,4.57
2023-05-15T07:19:22.903Z,4.75
2023-05-15T07:21:54.837Z,3.95
2023-05-15T07:24:26.289Z,3.83
2023-05-15T07:26:59.261Z,3.67
2023-05-15T07:29:30.917Z,3.80
2023-05-15T07:32:02.825Z,4.47
2023-05-15T07:34:34.339Z,4.85
2023-05-15T07:37:06.261Z,3.55
2023-05-15T07:39:37.872Z,4.07
2023-05-15T07:42:09.900Z,3.88
2023-05-15T07:44:43.992Z,4.22
2023-05-15T07:47:16.858Z,2.97
2023-05-15T07:49:48.628Z,3.00
2023-05-15T07:52:20.132Z,3.15
2023-05-15T07:54:51.606Z,2.90
2023-05-15T07:57:23.047Z,2.53
2023-05-15T07:59:54.964Z,2.90
2023-05-15T08:02:26.485Z,2.40
2023-05-15T08:04:58.361Z,2.63
2023-05-15T08:07:29.822Z,2.63
2023-05-15T08:10:01.649Z,2.60
2023-05-15T08:12:33.142Z,2.57
2023-05-15T08:15:04.996Z,2.15
2023-05-15T08:17:36.480Z,2.60
2023-05-15T08:20:07.959Z,2.75
2023-05-15T08:22:39.427Z,2.38
2023-05-15T08:25:10.878Z,2.85
2023-05-15T08:27:42.757Z,2.50
2023-05-15T08:30:14.212Z,2.27
2023-05-15T08:32:45.805Z,2.20
2023-05-15T08:35:17.323Z,2.70
2023-05-15T08:37:49.131Z,2.20
2023-05-15T08:40:25.621Z,2.17
2023-05-15T08:43:06.517Z,2.15
2023-05-15T08:45:38.068Z,2.08
2023-05-15T08:48:09.600Z,2.00
2023-05-15T08:50:41.096Z,1.98
2023-05-15T08:53:12.636Z,2.28
2023-05-15T08:55:44.437Z,2.10
2023-05-15T08:58:15.918Z,2.10
2023-05-15T09:00:47.415Z,2.42
2023-05-15T09:03:18.969Z,2.28
2023-05-15T09:05:50.726Z,2.05
2023-05-15T09:08:23.338Z,2.10
2023-05-15T09:10:55.368Z,2.42
2023-05-15T09:13:27.220Z,2.07
2023-05-15T09:15:58.684Z,2.40
2023-05-15T09:18:30.362Z,2.40
2023-05-15T09:21:01.875Z,1.92
2023-05-15T09:23:33.456Z,2.00
2023-05-15T09:26:05.008Z,2.05
2023-05-15T09:28:36.505Z,2.08
2023-05-15T09:31:08.025Z,1.85
2023-05-15T09:33:39.492Z,2.22
2023-05-15T09:36:10.954Z,2.28
2023-05-15T09:38:42.763Z,2.00
2023-05-15T09:41:14.742Z,2.67
2023-05-15T09:43:47.976Z,2.10
2023-05-15T09:46:19.927Z,2.38
2023-05-15T09:48:51.424Z,2.20
2023-05-15T09:51:23.099Z,2.15
2023-05-15T09:53:54.579Z,1.73
2023-05-15T09:56:26.214Z,2.33
2023-05-15T09:58:57.838Z,2.25
2023-05-15T10:01:29.781Z,2.03
2023-05-15T10:04:01.266Z,2.10
2023-05-15T10:06:33.086Z,1.80
2023-05-15T10:09:04.853Z,1.98
2023-05-15T10:11:36.322Z,2.15
2023-05-15T10:14:08.080Z,2.60
2023-05-15T10:16:39.641Z,2.30
2023-05-15T10:19:11.596Z,2.15
2023-05-15T10:21:43.075Z,2.30
2023-05-15T10:24:14.847Z,2.17
2023-05-15T10:26:46.305Z,2.23
2023-05-15T10:29:17.770Z,2.22
2023-05-15T10:31:49.321Z,2.28
2023-05-15T10:34:20.822Z,2.28
2023-05-15T10:36:52.288Z,2.53
2023-05-15T10:39:24.048Z,3.05
2023-05-15T10:41:55.518Z,2.50
2023-05-15T10:44:26.980Z,2.10
2023-05-15T10:46:58.898Z,2.42
2023-05-15T10:49:30.450Z,2.47
2023-05-15T10:52:02.478Z,2.70
2023-05-15T10:54:33.924Z,2.60
2023-05-15T10:57:05.813Z,2.63
2023-05-15T10:59:37.548Z,3.35
2023-05-15T11:02:09.342Z,2.50
2023-05-15T11:04:40.879Z,2.67
2023-05-15T11:07:12.834Z,2.63
2023-05-15T11:09:44.776Z,2.50
2023-05-15T11:12:16.265Z,2.03
2023-05-15T11:14:48.196Z,2.33
2023-05-15T11:17:19.655Z,1.95
2023-05-15T11:19:51.632Z,1.95
2023-05-15T11:22:23.173Z,2.22
2023-05-15T11:24:54.739Z,1.70
2023-05-15T11:27:26.178Z,1.65
2023-05-15T11:29:57.739Z,2.17
2023-05-15T11:32:29.235Z,1.52
2023-05-15T11:35:00.785Z,1.75
2023-05-15T11:37:32.747Z,1.58
2023-05-15T11:40:04.520Z,1.80
2023-05-15T11:42:36.003Z,1.83
2023-05-15T11:45:07.468Z,1.70
2023-05-15T11:47:39.030Z,1.77
2023-05-15T11:50:10.501Z,1.85
2023-05-15T11:52:42.126Z,2.15
2023-05-15T11:55:13.806Z,2.55
2023-05-15T11:57:45.254Z,1.90
2023-05-15T12:00:16.905Z,1.88
2023-05-15T12:02:48.476Z,1.77
2023-05-15T12:05:20.332Z,2.05
2023-05-15T12:07:51.796Z,1.67
2023-05-15T12:10:23.681Z,1.80
2023-05-15T12:12:55.212Z,1.65
2023-05-15T12:15:27.111Z,1.70
2023-05-15T12:17:58.596Z,1.30
2023-05-15T12:20:30.404Z,1.35
2023-05-15T12:23:01.863Z,1.70
2023-05-15T12:25:33.311Z,1.80
2023-05-15T12:28:04.773Z,1.10
2023-05-15T12:30:36.217Z,1.30
2023-05-15T12:33:08.124Z,1.42
2023-05-15T12:35:39.614Z,1.45
2023-05-15T12:38:11.392Z,1.00
2023-05-15T12:40:42.837Z,1.20
2023-05-15T12:43:14.654Z,1.00
2023-05-15T12:45:46.170Z,0.95
2023-05-15T12:48:17.644Z,1.00
2023-05-15T12:50:49.112Z,0.90
2023-05-15T12:53:20.890Z,0.88
2023-05-15T12:55:52.691Z,1.00
2023-05-15T12:58:24.165Z,1.20
2023-05-15T13:00:56.420Z,1.27
2023-05-15T13:03:28.031Z,1.20
2023-05-15T13:05:59.977Z,1.30
2023-05-15T13:08:31.477Z,1.08
2023-05-15T13:11:03.308Z,1.40
2023-05-15T13:13:34.790Z,1.50
2023-05-15T13:16:08.282Z,1.20
2023-05-15T13:18:42.013Z,1.10
2023-05-15T13:21:13.904Z,0.98
2023-05-15T13:23:45.694Z,1.23
2023-05-15T13:26:17.166Z,1.25
2023-05-15T13:28:48.959Z,1.58
2023-05-15T13:31:20.457Z,1.20
2023-05-15T13:33:51.982Z,1.53
2023-05-15T13:36:23.451Z,1.30
2023-05-15T13:38:55.144Z,1.60
2023-05-15T13:41:26.591Z,1.42
2023-05-15T13:43:58.370Z,1.38
2023-05-15T13:46:30.177Z,1.55
2023-05-15T13:49:01.698Z,1.90
2023-05-15T13:51:33.714Z,1.70
2023-05-15T13:54:07.286Z,1.60
2023-05-15T13:56:38.783Z,1.63
2023-05-15T13:59:10.265Z,1.33
2023-05-15T14:01:41.895Z,1.08
2023-05-15T14:04:13.599Z,0.97
2023-05-15T14:06:45.172Z,1.10
2023-05-15T14:09:16.717Z,0.95
2023-05-15T14:11:48.630Z,1.15
2023-05-15T14:14:20.353Z,0.98
2023-05-15T14:16:52.230Z,1.02
2023-05-15T14:19:24.310Z,1.02
2023-05-15T14:21:55.838Z,1.17
2023-05-15T14:24:27.789Z,1.38
2023-05-15T14:26:59.240Z,1.40
2023-05-15T14:29:31.000Z,1.00
2023-05-15T14:32:02.460Z,1.33
2023-05-15T14:34:34.042Z,1.35
2023-05-15T14:37:05.527Z,0.98
2023-05-15T14:39:37.024Z,1.33
2023-05-15T14:42:08.640Z,1.20
2023-05-15T14:44:40.107Z,1.42
2023-05-15T14:47:11.848Z,1.20
2023-05-15T14:49:43.504Z,1.20
2023-05-15T14:52:15.150Z,1.20
2023-05-15T14:54:56.927Z,1.15
2023-05-15T14:57:38.036Z,1.38
2023-05-15T15:00:09.621Z,1.45
2023-05-15T15:02:41.278Z,1.17
2023-05-15T15:05:12.795Z,1.10
2023-05-15T15:07:44.789Z,1.05
2023-05-15T15:10:16.262Z,1.15
2023-05-15T15:12:47.915Z,1.40
2023-05-15T15:15:19.552Z,1.20
2023-05-15T15:17:51.041Z,1.10
2023-05-15T15:20:22.548Z,1.20
2023-05-15T15:22:54.024Z,0.98
2023-05-15T15:25:25.724Z,1.48
2023-05-15T15:27:57.189Z,1.17
2023-05-15T15:30:28.954Z,1.27
2023-05-15T15:33:00.471Z,1.10
2023-05-15T15:35:32.376Z,1.13
2023-05-15T15:38:03.854Z,1.27
2023-05-15T15:40:35.369Z,1.33
2023-05-15T15:43:06.838Z,1.30
2023-05-15T15:45:38.408Z,0.95
2023-05-15T15:48:10.337Z,1.10
2023-05-15T15:50:41.820Z,1.33
2023-05-15T15:53:13.270Z,1.27
2023-05-15T15:55:47.003Z,1.30
2023-05-15T15:58:18.985Z,1.02
2023-05-15T16:00:50.477Z,1.13
2023-05-15T16:03:22.274Z,1.02
2023-05-15T16:05:53.821Z,0.90
2023-05-15T16:08:25.661Z,1.30
2023-05-15T16:10:57.165Z,1.10
2023-05-15T16:13:29.009Z,1.15
2023-05-15T16:16:00.496Z,1.10
2023-05-15T16:18:35.029Z,0.85
2023-05-15T16:21:06.872Z,0.93
2023-05-15T16:23:38.322Z,0.90
2023-05-15T16:26:09.934Z,1.00
2023-05-15T16:28:41.423Z,1.13
2023-05-15T16:31:13.244Z,0.95
2023-05-15T16:33:44.762Z,0.87
2023-05-15T16:36:16.598Z,1.00
2023-05-15T16:38:48.047Z,0.82
2023-05-15T16:41:19.708Z,0.95
2023-05-15T16:43:51.538Z,0.90
2023-05-15T16:46:23.405Z,0.90
2023-05-15T16:48:55.219Z,0.87
2023-05-15T16:51:26.700Z,1.13
2023-05-15T16:53:58.634Z,0.82
2023-05-15T16:56:30.126Z,0.70
2023-05-15T16:59:01.894Z,1.00
2023-05-15T17:01:33.433Z,0.70
2023-05-15T17:04:05.336Z,0.98
2023-05-15T17:06:36.815Z,0.73
2023-05-15T17:09:08.605Z,1.02
2023-05-15T17:11:40.083Z,1.02
2023-05-15T17:14:11.591Z,0.65
2023-05-15T17:16:43.488Z,0.88
2023-05-15T17:19:15.076Z,1.00
2023-05-15T17:21:46.780Z,1.05
2023-05-15T17:24:18.240Z,0.88
2023-05-15T17:26:49.683Z,1.05
2023-05-15T17:29:21.145Z,0.80
2023-05-15T17:31:52.732Z,0.98
2023-05-15T17:34:24.240Z,1.05
2023-05-15T17:36:55.726Z,1.10
2023-05-15T17:39:27.189Z,1.08
2023-05-15T17:41:58.676Z,1.58
2023-05-15T17:44:30.497Z,1.25
2023-05-15T17:47:02.069Z,1.10
2023-05-15T17:49:33.579Z,0.90
2023-05-15T17:52:05.028Z,1.00
2023-05-15T17:54:36.517Z,1.15
2023-05-15T17:57:07.981Z,1.33
2023-05-15T17:59:39.452Z,1.00
2023-05-15T18:02:10.941Z,1.20
2023-05-15T18:04:42.797Z,1.20
2023-05-15T18:07:14.264Z,1.13
2023-05-15T18:09:46.020Z,1.17
2023-05-15T18:12:17.492Z,1.10
2023-05-15T18:14:49.385Z,1.10
2023-05-15T18:17:21.398Z,1.30
2023-05-15T18:19:52.880Z,1.00
2023-05-15T18:22:24.665Z,1.10
2023-05-15T18:24:56.125Z,1.08
2023-05-15T18:27:27.938Z,1.08
2023-05-15T18:29:59.454Z,1.20
2023-05-15T18:32:30.971Z,0.82
2023-05-15T18:35:02.482Z,1.02
2023-05-15T18:37:33.955Z,0.95
2023-05-15T18:40:05.428Z,1.00
2023-05-15T18:42:36.900Z,0.82
2023-05-15T18:45:08.712Z,0.70
2023-05-15T18:47:42.336Z,0.98
2023-05-15T18:50:14.009Z,1.10
2023-05-15T18:52:45.489Z,1.23
2023-05-15T18:55:16.984Z,0.93
2023-05-15T18:57:48.505Z,0.73
2023-05-15T19:00:33.998Z,1.08
2023-05-15T19:03:09.913Z,1.13
2023-05-15T19:05:41.553Z,0.98
2023-05-15T19:08:13.020Z,0.73
2023-05-15T19:10:44.461Z,1.25
2023-05-15T19:13:16.198Z,1.05
2023-05-15T19:15:47.976Z,0.82
2023-05-15T19:18:19.820Z,1.05
2023-05-15T19:20:51.377Z,0.88
2023-05-15T19:23:22.864Z,1.42
2023-05-15T19:25:54.307Z,1.45
2023-05-15T19:28:26.126Z,1.08
2023-05-15T19:30:57.602Z,1.35
2023-05-15T19:33:29.417Z,1.10
2023-05-15T19:36:00.906Z,0.82
2023-05-15T19:38:32.735Z,1.38
2023-05-15T19:41:04.770Z,0.73
2023-05-15T19:43:36.225Z,1.00
2023-05-15T19:46:07.975Z,0.90
2023-05-15T19:48:39.456Z,1.02
2023-05-15T19:51:11.321Z,1.00
2023-05-15T19:53:42.802Z,1.05
2023-05-15T19:56:14.300Z,1.02
2023-05-15T19:58:45.789Z,1.13
2023-05-15T20:01:17.657Z,1.27
2023-05-15T20:03:49.292Z,1.77
2023-05-15T20:06:21.262Z,1.08
2023-05-15T20:08:52.747Z,0.77
2023-05-15T20:11:24.529Z,1.35
2023-05-15T20:13:56.341Z,1.15
2023-05-15T20:16:27.856Z,1.40
2023-05-15T20:18:59.671Z,1.23
2023-05-15T20:21:31.110Z,1.15
2023-05-15T20:24:02.883Z,1.10
2023-05-15T20:26:34.322Z,1.10
2023-05-15T20:29:05.979Z,1.45
2023-05-15T20:31:37.474Z,1.25
2023-05-15T20:34:09.285Z,1.23
2023-05-15T20:36:40.733Z,1.00
2023-05-15T20:39:12.224Z,1.30
2023-05-15T20:41:44.120Z,1.05
2023-05-15T20:44:15.877Z,1.15
2023-05-15T20:46:47.723Z,1.30
2023-05-15T20:49:19.157Z,1.40
2023-05-15T20:51:51.079Z,1.08
2023-05-15T20:54:22.543Z,1.02
2023-05-15T20:56:54.312Z,1.25
2023-05-15T20:59:25.755Z,1.10
2023-05-15T21:01:57.541Z,1.60
2023-05-15T21:04:29.001Z,1.00
2023-05-15T21:07:00.792Z,1.60
2023-05-15T21:09:32.226Z,1.23
2023-05-15T21:12:03.923Z,1.65
2023-05-15T21:14:35.464Z,1.35
2023-05-15T21:17:06.972Z,1.48
2023-05-15T21:19:38.471Z,1.10
2023-05-15T21:22:09.928Z,1.65
2023-05-15T21:24:41.381Z,1.10
2023-05-15T21:27:12.826Z,1.13
2023-05-15T21:29:44.607Z,1.50
2023-05-15T21:32:16.057Z,1.58
2023-05-15T21:34:47.904Z,1.25
2023-05-15T21:37:19.372Z,1.33
2023-05-15T21:39:51.195Z,1.08
2023-05-15T21:42:23.039Z,1.58
2023-05-15T21:44:54.894Z,1.73
2023-05-15T21:47:26.766Z,1.10
2023-05-15T21:49:58.243Z,1.23
2023-05-15T21:52:29.698Z,1.00
2023-05-15T21:55:01.140Z,1.35
2023-05-15T21:57:32.749Z,1.13
2023-05-15T22:00:04.186Z,1.23
2023-05-15T22:02:35.780Z,1.52
2023-05-15T22:05:07.332Z,1.50
2023-05-15T22:07:38.799Z,1.35
2023-05-15T22:10:10.229Z,1.20
2023-05-15T22:12:41.692Z,1.20
2023-05-15T22:15:13.454Z,1.35
2023-05-15T22:17:45.443Z,1.33
2023-05-15T22:20:16.931Z,1.05
2023-05-15T22:22:48.406Z,1.38
2023-05-15T22:25:19.861Z,1.20
2023-05-15T22:27:51.325Z,1.50
2023-05-15T22:30:23.046Z,1.38
2023-05-15T22:32:54.568Z,1.77
2023-05-15T22:35:26.180Z,1.33
2023-05-15T22:37:57.785Z,1.48
2023-05-15T22:40:29.637Z,1.42
2023-05-15T22:43:01.346Z,1.48
2023-05-15T22:45:32.829Z,1.80
2023-05-15T22:48:04.684Z,1.30
2023-05-15T22:50:36.209Z,1.80
2023-05-15T22:53:07.962Z,1.55
2023-05-15T22:55:39.419Z,1.88
2023-05-15T22:58:11.264Z,1.55
2023-05-15T23:00:42.714Z,1.73
2023-05-15T23:03:14.621Z,1.50
2023-05-15T23:05:46.134Z,1.45
2023-05-15T23:08:18.202Z,1.70
2023-05-15T23:10:49.678Z,1.67
2023-05-15T23:13:21.514Z,1.98
2023-05-15T23:15:53.372Z,1.80
2023-05-15T23:18:24.815Z,1.80
2023-05-15T23:20:56.567Z,1.70
2023-05-15T23:23:28.028Z,1.40
2023-05-15T23:25:59.932Z,1.73
2023-05-15T23:28:31.379Z,1.98
2023-05-15T23:31:03.148Z,1.63
2023-05-15T23:33:34.645Z,1.42
2023-05-15T23:36:06.260Z,1.58
2023-05-15T23:38:37.728Z,1.70
2023-05-15T23:41:09.535Z,1.75
2023-05-15T23:43:41.000Z,2.22
2023-05-15T23:46:12.509Z,1.85
2023-05-15T23:48:44.400Z,1.85
2023-05-15T23:51:15.840Z,1.85
2023-05-15T23:53:47.303Z,1.60
2023-05-15T23:56:18.772Z,1.95
2023-05-15T23:58:50.504Z,1.67
